createdAt,value
2022-10-17T00:01:07.911Z,19.50
2022-10-17T00:03:37.214Z,19.70
2022-10-17T00:06:08.213Z,19.30
2022-10-17T00:08:36.827Z,19.30
2022-10-17T00:11:07.201Z,19.30
2022-10-17T00:13:36.985Z,19.70
2022-10-17T00:16:05.885Z,19.60
2022-10-17T00:18:34.224Z,19.80
2022-10-17T00:21:02.446Z,19.70
2022-10-17T00:23:30.777Z,19.60
2022-10-17T00:26:02.337Z,19.60
2022-10-17T00:28:30.920Z,19.50
2022-10-17T00:31:02.345Z,19.30
2022-10-17T00:33:31.135Z,19.60
2022-10-17T00:36:07.304Z,19.80
2022-10-17T00:38:36.144Z,19.90
2022-10-17T00:41:04.856Z,19.70
2022-10-17T00:43:48.208Z,19.60
2022-10-17T00:46:17.928Z,19.60
2022-10-17T00:48:47.485Z,19.60
2022-10-17T00:51:16.786Z,19.60
2022-10-17T00:53:45.037Z,19.40
2022-10-17T00:56:14.577Z,19.50
2022-10-17T00:58:42.861Z,19.30
2022-10-17T01:01:11.186Z,19.50
2022-10-17T01:03:40.804Z,19.60
2022-10-17T01:06:09.386Z,19.80
2022-10-17T01:08:38.466Z,19.90
2022-10-17T01:11:20.829Z,19.60
2022-10-17T01:13:54.020Z,19.80
2022-10-17T01:16:30.492Z,19.90
2022-10-17T01:19:08.373Z,19.80
2022-10-17T01:21:46.234Z,19.30
2022-10-17T01:24:48.085Z,19.20
2022-10-17T01:27:56.532Z,19.30
2022-10-17T01:30:51.756Z,19.60
2022-10-17T01:33:28.925Z,19.60
2022-10-17T01:36:04.903Z,19.50
2022-10-17T01:38:36.721Z,19.60
2022-10-17T01:41:11.076Z,19.60
2022-10-17T01:43:42.628Z,19.60
2022-10-17T01:46:15.588Z,19.80
2022-10-17T01:48:47.480Z,19.70
2022-10-17T01:51:20.390Z,19.70
2022-10-17T01:53:54.333Z,19.70
2022-10-17T01:56:26.911Z,19.40
2022-10-17T01:59:01.427Z,19.30
2022-10-17T02:01:31.940Z,19.30
2022-10-17T02:04:03.033Z,19.40
2022-10-17T02:06:35.232Z,19.50
2022-10-17T02:09:16.226Z,19.40
2022-10-17T02:11:49.162Z,19.60
2022-10-17T02:14:29.116Z,19.60
2022-10-17T02:17:09.625Z,19.90
2022-10-17T02:19:55.236Z,20.00
2022-10-17T02:22:34.057Z,20.00
2022-10-17T02:25:08.887Z,19.70
2022-10-17T02:27:45.077Z,19.80
2022-10-17T02:30:16.293Z,19.90
2022-10-17T02:32:50.683Z,19.90
2022-10-17T02:35:22.178Z,19.80
2022-10-17T02:37:52.209Z,19.80
2022-10-17T02:40:23.793Z,19.70
2022-10-17T02:42:53.985Z,19.70
2022-10-17T02:45:22.866Z,19.90
2022-10-17T02:47:57.240Z,19.80
2022-10-17T02:50:34.625Z,19.80
2022-10-17T02:53:07.591Z,19.80
2022-10-17T02:55:40.605Z,19.80
2022-10-17T02:58:13.366Z,19.80
2022-10-17T03:00:42.911Z,19.70
2022-10-17T03:03:21.669Z,19.80
2022-10-17T03:05:52.200Z,19.80
2022-10-17T03:08:21.010Z,19.90
2022-10-17T03:10:49.754Z,19.70
2022-10-17T03:13:18.990Z,19.70
2022-10-17T03:15:47.371Z,19.70
2022-10-17T03:18:15.758Z,19.70
2022-10-17T03:20:44.133Z,19.60
2022-10-17T03:23:13.668Z,19.50
2022-10-17T03:25:41.923Z,19.60
2022-10-17T03:28:12.565Z,19.60
2022-10-17T03:30:40.995Z,19.60
2022-10-17T03:33:09.296Z,19.70
2022-10-17T03:35:40.266Z,19.60
2022-10-17T03:38:08.648Z,19.70
2022-10-17T03:40:38.268Z,19.70
2022-10-17T03:43:06.574Z,19.60
2022-10-17T03:45:35.304Z,19.50
2022-10-17T03:48:03.838Z,19.50
2022-10-17T03:50:32.274Z,19.30
2022-10-17T03:53:00.654Z,19.30
2022-10-17T03:55:28.774Z,19.20
2022-10-17T03:57:58.272Z,18.90
2022-10-17T04:00:26.460Z,19.00
2022-10-17T04:02:55.053Z,18.90
2022-10-17T04:05:23.301Z,18.90
2022-10-17T04:07:51.662Z,18.70
2022-10-17T04:10:19.977Z,18.70
2022-10-17T04:12:48.105Z,18.80
2022-10-17T04:15:18.066Z,18.70
2022-10-17T04:17:48.506Z,18.60
2022-10-17T04:20:17.112Z,18.70
2022-10-17T04:22:45.333Z,18.70
2022-10-17T04:25:13.558Z,19.00
2022-10-17T04:27:41.938Z,18.80
2022-10-17T04:30:10.686Z,18.60
2022-10-17T04:32:40.835Z,18.60
2022-10-17T04:35:09.905Z,18.50
2022-10-17T04:37:38.101Z,18.40
2022-10-17T04:40:07.044Z,18.30
2022-10-17T04:42:35.369Z,18.40
2022-10-17T04:45:03.608Z,18.50
2022-10-17T04:47:31.853Z,18.50
2022-10-17T04:50:01.372Z,18.60
2022-10-17T04:52:29.992Z,18.70
2022-10-17T04:54:58.622Z,18.40
2022-10-17T04:57:27.559Z,18.40
2022-10-17T04:59:55.916Z,18.20
2022-10-17T05:02:24.213Z,18.20
2022-10-17T05:04:52.468Z,18.10
2022-10-17T05:07:22.075Z,18.10
2022-10-17T05:09:50.479Z,18.00
2022-10-17T05:12:18.783Z,17.90
2022-10-17T05:14:46.900Z,18.00
2022-10-17T05:17:15.305Z,18.00
2022-10-17T05:19:43.692Z,18.00
2022-10-17T05:22:11.902Z,18.00
2022-10-17T05:24:41.493Z,18.00
2022-10-17T05:27:09.771Z,18.10
2022-10-17T05:29:38.034Z,18.00
2022-10-17T05:32:06.500Z,18.00
2022-10-17T05:34:35.397Z,18.00
2022-10-17T05:37:04.052Z,18.00
2022-10-17T05:39:32.550Z,18.00
2022-10-17T05:42:01.967Z,18.00
2022-10-17T05:44:30.321Z,18.30
2022-10-17T05:46:58.597Z,18.30
2022-10-17T05:49:33.269Z,18.10
2022-10-17T05:52:08.273Z,18.10
2022-10-17T05:54:36.636Z,18.30
2022-10-17T05:57:06.307Z,18.70
2022-10-17T05:59:34.593Z,18.80
2022-10-17T06:02:03.075Z,19.00
2022-10-17T06:04:31.407Z,19.20
2022-10-17T06:06:59.702Z,19.40
2022-10-17T06:09:28.129Z,19.30
2022-10-17T06:11:56.375Z,19.40
2022-10-17T06:14:26.015Z,19.40
2022-10-17T06:16:54.690Z,19.40
2022-10-17T06:19:23.226Z,19.60
2022-10-17T06:21:51.425Z,19.50
2022-10-17T06:24:19.837Z,19.60
2022-10-17T06:26:49.900Z,19.80
2022-10-17T06:29:18.292Z,20.00
2022-10-17T06:31:47.962Z,19.70
2022-10-17T06:34:16.411Z,19.70
2022-10-17T06:36:44.752Z,19.80
2022-10-17T06:39:13.468Z,19.80
2022-10-17T06:41:43.823Z,19.70
2022-10-17T06:44:12.232Z,19.50
2022-10-17T06:46:41.232Z,19.80
2022-10-17T06:49:12.012Z,19.80
2022-10-17T06:51:40.223Z,19.90
2022-10-17T06:54:08.646Z,19.70
2022-10-17T06:56:37.222Z,19.50
2022-10-17T06:59:05.592Z,19.20
2022-10-17T07:01:34.302Z,19.30
2022-10-17T07:04:02.645Z,19.00
2022-10-17T07:06:32.439Z,18.90
2022-10-17T07:09:02.852Z,18.80
2022-10-17T07:11:31.134Z,18.80
2022-10-17T07:13:59.386Z,18.80
2022-10-17T07:16:27.788Z,18.70
2022-10-17T07:18:56.635Z,18.70
2022-10-17T07:21:25.032Z,18.60
2022-10-17T07:23:54.624Z,18.60
2022-10-17T07:26:23.185Z,18.50
2022-10-17T07:28:55.072Z,18.40
2022-10-17T07:31:24.018Z,18.40
2022-10-17T07:33:52.362Z,18.40
2022-10-17T07:36:21.030Z,18.40
2022-10-17T07:38:49.481Z,18.50
2022-10-17T07:41:21.717Z,18.50
2022-10-17T07:43:50.475Z,18.30
2022-10-17T07:46:19.097Z,18.30
2022-10-17T07:48:47.424Z,18.30
2022-10-17T07:51:16.053Z,18.20
2022-10-17T07:53:46.483Z,18.20
2022-10-17T07:56:18.305Z,18.40
2022-10-17T07:58:48.396Z,18.50
2022-10-17T08:01:17.558Z,18.60
2022-10-17T08:03:47.222Z,18.70
2022-10-17T08:06:15.790Z,18.70
2022-10-17T08:08:44.931Z,18.90
2022-10-17T08:11:15.919Z,19.20
2022-10-17T08:13:45.323Z,19.50
2022-10-17T08:16:15.163Z,19.50
2022-10-17T08:18:44.476Z,19.60
2022-10-17T08:21:14.226Z,19.50
2022-10-17T08:23:42.601Z,19.80
2022-10-17T08:26:13.813Z,19.80
2022-10-17T08:28:42.320Z,19.60
2022-10-17T08:31:14.500Z,19.80
2022-10-17T08:33:43.251Z,19.90
2022-10-17T08:36:13.308Z,19.90
2022-10-17T08:38:43.734Z,19.80
2022-10-17T08:41:21.489Z,19.90
2022-10-17T08:44:07.933Z,20.00
2022-10-17T08:46:42.030Z,20.20
2022-10-17T08:49:14.703Z,20.30
2022-10-17T08:51:49.235Z,20.20
2022-10-17T08:54:21.417Z,20.10
2022-10-17T08:56:52.653Z,20.00
2022-10-17T08:59:26.525Z,20.00
2022-10-17T09:02:02.228Z,19.80
2022-10-17T09:04:48.675Z,19.80
2022-10-17T09:07:25.284Z,19.80
2022-10-17T09:10:04.675Z,19.40
2022-10-17T09:12:41.818Z,19.20
2022-10-17T09:15:49.830Z,19.20
2022-10-17T09:18:24.395Z,19.40
2022-10-17T09:20:55.606Z,19.50
2022-10-17T09:23:27.111Z,19.80
2022-10-17T09:25:57.264Z,20.00
2022-10-17T09:28:30.731Z,19.90
2022-10-17T09:31:02.609Z,19.90
2022-10-17T09:33:52.961Z,19.80
2022-10-17T09:36:27.130Z,19.80
2022-10-17T09:38:57.132Z,19.80
2022-10-17T09:41:45.841Z,19.80
2022-10-17T09:44:21.725Z,20.00
2022-10-17T09:47:14.868Z,19.80
2022-10-17T09:49:46.059Z,19.70
2022-10-17T09:52:17.661Z,19.80
2022-10-17T09:54:48.056Z,20.20
2022-10-17T09:57:18.367Z,20.30
2022-10-17T09:59:48.669Z,19.90
2022-10-17T10:02:20.504Z,19.80
2022-10-17T10:05:04.227Z,19.80
2022-10-17T10:07:34.378Z,19.60
2022-10-17T10:10:04.130Z,19.50
2022-10-17T10:12:33.784Z,19.40
2022-10-17T10:15:02.216Z,19.40
2022-10-17T10:17:39.548Z,19.50
2022-10-17T10:20:32.695Z,19.50
2022-10-17T10:23:15.221Z,19.80
2022-10-17T10:25:57.773Z,19.90
2022-10-17T10:28:29.094Z,19.90
2022-10-17T10:30:59.776Z,19.90
2022-10-17T10:33:30.933Z,20.00
2022-10-17T10:36:03.469Z,20.10
2022-10-17T10:38:33.075Z,20.00
2022-10-17T10:41:05.061Z,20.10
2022-10-17T10:43:38.925Z,20.20
2022-10-17T10:46:18.751Z,20.20
2022-10-17T10:48:54.805Z,20.30
2022-10-17T10:51:29.124Z,20.50
2022-10-17T10:54:03.299Z,20.50
2022-10-17T10:56:35.979Z,20.40
2022-10-17T10:59:10.536Z,20.30
2022-10-17T11:01:45.118Z,20.50
2022-10-17T11:04:26.703Z,20.20
2022-10-17T11:07:02.489Z,19.80
2022-10-17T11:09:42.153Z,19.90
2022-10-17T11:12:18.087Z,20.20
2022-10-17T11:14:50.766Z,20.00
2022-10-17T11:17:29.049Z,20.00
2022-10-17T11:20:05.154Z,20.00
2022-10-17T11:22:39.596Z,20.00
2022-10-17T11:25:18.952Z,20.00
2022-10-17T11:27:47.393Z,20.10
2022-10-17T11:30:17.095Z,20.00
2022-10-17T11:32:48.279Z,20.10
2022-10-17T11:35:21.631Z,20.20
2022-10-17T11:37:55.211Z,20.20
2022-10-17T11:40:30.587Z,20.20
2022-10-17T11:43:02.397Z,20.10
2022-10-17T11:45:42.575Z,20.20
2022-10-17T11:48:18.715Z,20.20
2022-10-17T11:53:54.401Z,20.50
2022-10-17T11:56:28.821Z,20.40
2022-10-17T11:59:07.469Z,20.10
2022-10-17T12:01:40.118Z,20.40
2022-10-17T12:04:21.158Z,20.60
2022-10-17T12:07:00.998Z,20.70
2022-10-17T12:09:40.847Z,20.70
2022-10-17T12:12:09.279Z,20.70
2022-10-17T12:14:42.600Z,20.60
2022-10-17T12:17:34.776Z,20.70
2022-10-17T12:20:31.651Z,20.70
2022-10-17T12:23:07.412Z,20.40
2022-10-17T12:28:16.228Z,20.50
2022-10-17T12:30:59.512Z,20.70
2022-10-17T12:33:33.196Z,20.80
2022-10-17T12:36:47.222Z,20.90
2022-10-17T12:39:48.369Z,20.90
2022-10-17T12:42:49.384Z,20.70
2022-10-17T12:45:50.165Z,20.70
2022-10-17T12:49:03.883Z,20.60
2022-10-17T12:52:10.685Z,20.70
2022-10-17T12:54:47.610Z,20.60
2022-10-17T12:57:28.442Z,20.50
2022-10-17T12:59:58.824Z,20.60
2022-10-17T13:02:29.528Z,20.60
2022-10-17T13:05:08.096Z,20.60
2022-10-17T13:07:38.116Z,20.60
2022-10-17T13:10:07.734Z,20.70
2022-10-17T13:12:41.354Z,20.80
2022-10-17T13:15:17.779Z,20.90
2022-10-17T13:17:46.179Z,20.80
2022-10-17T13:20:25.549Z,20.80
2022-10-17T13:22:58.040Z,20.80
2022-10-17T13:25:27.416Z,20.80
2022-10-17T13:28:06.913Z,20.90
2022-10-17T13:30:37.528Z,20.90
2022-10-17T13:33:20.255Z,21.00
2022-10-17T13:35:59.871Z,20.90
2022-10-17T13:38:32.250Z,20.80
2022-10-17T13:41:30.077Z,20.90
2022-10-17T13:43:50.646Z,20.90
2022-10-17T13:46:37.210Z,21.00
2022-10-17T13:49:22.288Z,21.00
2022-10-17T13:51:54.559Z,21.00
2022-10-17T13:54:37.581Z,21.00
2022-10-17T13:57:16.920Z,21.00
2022-10-17T13:59:47.845Z,21.10
2022-10-17T14:02:20.690Z,20.90
2022-10-17T14:05:15.769Z,20.90
2022-10-17T14:08:09.261Z,21.00
2022-10-17T14:10:32.891Z,21.10
2022-10-17T14:13:02.167Z,21.00
2022-10-17T14:15:32.422Z,21.10
2022-10-17T14:18:07.828Z,21.10
2022-10-17T14:23:35.373Z,21.10
2022-10-17T14:26:13.195Z,21.00
2022-10-17T14:28:42.810Z,20.90
2022-10-17T14:31:19.375Z,20.70
2022-10-17T14:33:51.198Z,20.80
2022-10-17T14:36:20.429Z,20.80
2022-10-17T14:38:51.473Z,20.80
2022-10-17T14:44:25.207Z,20.90
2022-10-17T14:46:57.799Z,20.90
2022-10-17T14:49:34.225Z,20.90
2022-10-17T14:52:27.302Z,20.90
2022-10-17T14:54:55.929Z,20.90
2022-10-17T14:57:27.995Z,20.90
2022-10-17T14:59:57.259Z,21.00
2022-10-17T15:02:26.342Z,20.90
2022-10-17T15:04:56.128Z,20.70
2022-10-17T15:07:24.810Z,20.90
2022-10-17T15:09:54.470Z,20.90
2022-10-17T15:12:24.987Z,20.70
2022-10-17T15:14:54.170Z,20.80
2022-10-17T15:17:25.240Z,20.70
2022-10-17T15:19:53.667Z,20.70
2022-10-17T15:22:23.197Z,20.90
2022-10-17T15:24:51.643Z,20.90
2022-10-17T15:27:21.416Z,21.00
2022-10-17T15:29:50.530Z,21.00
2022-10-17T15:32:18.869Z,21.00
2022-10-17T15:34:47.037Z,21.10
2022-10-17T15:37:20.067Z,20.90
2022-10-17T15:39:53.454Z,20.80
2022-10-17T15:42:23.031Z,20.70
2022-10-17T15:44:51.162Z,20.70
2022-10-17T15:47:25.420Z,20.70
2022-10-17T15:49:53.771Z,20.80
2022-10-17T15:52:22.454Z,20.90
2022-10-17T15:54:51.980Z,20.90
2022-10-17T15:57:21.935Z,20.80
2022-10-17T15:59:52.262Z,20.70
2022-10-17T16:02:22.316Z,20.70
2022-10-17T16:04:51.410Z,20.90
2022-10-17T16:07:20.126Z,20.90
2022-10-17T16:09:48.298Z,20.80
2022-10-17T16:12:20.347Z,21.00
2022-10-17T16:14:48.722Z,21.00
2022-10-17T16:17:18.138Z,20.90
2022-10-17T16:19:46.426Z,21.00
2022-10-17T16:22:24.805Z,21.00
2022-10-17T16:24:58.437Z,20.90
2022-10-17T16:27:28.612Z,21.00
2022-10-17T16:29:56.940Z,20.80
2022-10-17T16:32:25.100Z,20.70
2022-10-17T16:34:53.387Z,20.70
2022-10-17T16:37:21.775Z,20.70
2022-10-17T16:39:52.440Z,20.80
2022-10-17T16:42:21.368Z,20.70
2022-10-17T16:44:51.525Z,20.30
2022-10-17T16:47:20.163Z,20.50
2022-10-17T16:49:48.516Z,20.30
2022-10-17T16:52:17.039Z,20.30
2022-10-17T16:54:45.374Z,20.10
2022-10-17T16:57:14.068Z,19.90
2022-10-17T16:59:42.369Z,19.90
2022-10-17T17:02:12.379Z,20.10
2022-10-17T17:04:40.599Z,20.20
2022-10-17T17:07:09.324Z,20.10
2022-10-17T17:09:37.553Z,20.00
2022-10-17T17:12:05.926Z,20.00
2022-10-17T17:14:34.365Z,20.00
2022-10-17T17:17:02.821Z,20.20
2022-10-17T17:19:32.668Z,20.10
2022-10-17T17:22:01.022Z,20.20
2022-10-17T17:24:29.401Z,20.20
2022-10-17T17:26:58.377Z,20.10
2022-10-17T17:29:27.019Z,20.20
2022-10-17T17:31:55.495Z,20.20
2022-10-17T17:34:23.637Z,20.00
2022-10-17T17:36:53.519Z,20.20
2022-10-17T17:39:22.063Z,19.90
2022-10-17T17:41:50.658Z,19.80
2022-10-17T17:44:19.034Z,19.50
2022-10-17T17:46:47.963Z,19.60
2022-10-17T17:49:16.148Z,19.40
2022-10-17T17:51:46.605Z,19.30
2022-10-17T17:54:16.400Z,19.20
2022-10-17T17:56:44.673Z,19.10
2022-10-17T17:59:14.180Z,19.00
2022-10-17T18:01:42.868Z,18.90
2022-10-17T18:04:12.125Z,18.80
2022-10-17T18:06:40.925Z,18.70
2022-10-17T18:09:10.165Z,18.60
2022-10-17T18:11:40.084Z,18.50
2022-10-17T18:14:12.331Z,18.50
2022-10-17T18:16:40.779Z,18.40
2022-10-17T18:19:11.530Z,18.40
2022-10-17T18:21:39.717Z,18.40
2022-10-17T18:24:08.253Z,18.30
2022-10-17T18:26:36.942Z,18.30
2022-10-17T18:29:06.630Z,18.30
2022-10-17T18:31:36.417Z,18.30
2022-10-17T18:34:06.149Z,18.30
2022-10-17T18:36:37.176Z,18.30
2022-10-17T18:39:06.237Z,18.30
2022-10-17T18:41:34.944Z,18.20
2022-10-17T18:44:03.994Z,18.20
2022-10-17T18:46:40.511Z,18.20
2022-10-17T18:49:10.030Z,18.20
2022-10-17T18:51:38.215Z,18.20
2022-10-17T18:54:06.547Z,18.10
2022-10-17T18:56:35.154Z,18.20
2022-10-17T18:59:03.571Z,18.10
2022-10-17T19:01:33.344Z,18.00
2022-10-17T19:04:02.183Z,18.00
2022-10-17T19:06:32.687Z,17.90
2022-10-17T19:09:01.904Z,17.80
2022-10-17T19:11:31.494Z,17.80
2022-10-17T19:14:01.131Z,17.80
2022-10-17T19:16:31.789Z,17.70
2022-10-17T19:19:03.039Z,17.90
2022-10-17T19:21:31.534Z,17.80
2022-10-17T19:24:01.290Z,17.70
2022-10-17T19:26:31.372Z,17.70
2022-10-17T19:29:00.592Z,17.70
2022-10-17T19:31:31.595Z,17.70
2022-10-17T19:34:01.608Z,17.70
2022-10-17T19:36:33.365Z,17.60
2022-10-17T19:39:03.372Z,17.50
2022-10-17T19:41:33.678Z,17.50
2022-10-17T19:44:02.251Z,17.60
2022-10-17T19:46:31.900Z,17.80
2022-10-17T19:49:02.128Z,17.80
2022-10-17T19:51:31.032Z,17.80
2022-10-17T19:54:01.216Z,17.70
2022-10-17T19:56:32.460Z,17.70
2022-10-17T19:59:00.874Z,17.60
2022-10-17T20:01:30.461Z,17.50
2022-10-17T20:03:59.130Z,17.50
2022-10-17T20:06:28.924Z,17.40
2022-10-17T20:08:57.300Z,17.50
2022-10-17T20:11:27.325Z,17.50
2022-10-17T20:13:56.326Z,17.50
2022-10-17T20:16:25.720Z,17.50
2022-10-17T20:18:55.754Z,17.50
2022-10-17T20:21:27.603Z,17.80
2022-10-17T20:23:57.246Z,17.90
2022-10-17T20:26:42.588Z,17.70
2022-10-17T20:29:13.862Z,17.60
2022-10-17T20:31:43.446Z,17.50
2022-10-17T20:34:14.139Z,17.30
2022-10-17T20:36:42.582Z,17.30
2022-10-17T20:39:13.732Z,17.30
2022-10-17T20:41:42.551Z,17.30
2022-10-17T20:44:10.967Z,17.30
2022-10-17T20:46:44.715Z,17.30
2022-10-17T20:49:16.501Z,17.40
2022-10-17T20:51:45.085Z,17.30
2022-10-17T20:54:14.835Z,17.30
2022-10-17T20:56:43.529Z,17.20
2022-10-17T20:59:14.363Z,17.30
2022-10-17T21:01:42.896Z,17.30
2022-10-17T21:04:40.692Z,17.30
2022-10-17T21:06:59.776Z,17.30
2022-10-17T21:09:29.639Z,17.30
2022-10-17T21:11:57.946Z,17.20
2022-10-17T21:14:26.763Z,17.20
2022-10-17T21:16:55.693Z,17.20
2022-10-17T21:19:25.067Z,17.10
2022-10-17T21:21:53.307Z,17.10
2022-10-17T21:24:21.559Z,17.10
2022-10-17T21:26:55.682Z,17.00
2022-10-17T21:29:24.675Z,17.00
2022-10-17T21:31:53.558Z,17.00
2022-10-17T21:34:24.503Z,17.10
2022-10-17T21:36:53.662Z,17.10
2022-10-17T21:39:24.089Z,17.10
2022-10-17T21:41:54.863Z,17.10
2022-10-17T21:44:25.016Z,17.10
2022-10-17T21:46:53.879Z,17.10
2022-10-17T21:49:24.012Z,17.00
2022-10-17T21:51:53.428Z,17.00
2022-10-17T21:54:23.008Z,17.00
2022-10-17T21:56:51.643Z,16.90
2022-10-17T21:59:21.166Z,16.80
2022-10-17T22:01:49.610Z,16.70
2022-10-17T22:04:19.820Z,16.70
2022-10-17T22:06:51.079Z,16.70
2022-10-17T22:09:22.133Z,16.70
2022-10-17T22:11:52.195Z,16.70
2022-10-17T22:14:24.642Z,16.70
2022-10-17T22:16:53.245Z,16.70
2022-10-17T22:19:22.516Z,16.60
2022-10-17T22:21:50.928Z,16.60
2022-10-17T22:26:50.086Z,16.40
2022-10-17T22:29:18.495Z,16.30
2022-10-17T22:31:48.405Z,16.30
2022-10-17T22:34:17.966Z,16.30
2022-10-17T22:36:47.780Z,16.20
2022-10-17T22:39:16.037Z,16.10
2022-10-17T22:41:44.200Z,16.20
2022-10-17T22:44:12.562Z,16.20
2022-10-17T22:46:40.968Z,16.20
2022-10-17T22:49:10.737Z,16.10
2022-10-17T22:51:39.164Z,16.10
2022-10-17T22:54:07.711Z,16.10
2022-10-17T22:56:36.152Z,16.10
2022-10-17T22:59:04.643Z,16.10
2022-10-17T23:01:33.048Z,16.00
2022-10-17T23:04:01.368Z,16.00
2022-10-17T23:06:30.940Z,15.90
2022-10-17T23:08:59.261Z,15.90
2022-10-17T23:11:27.479Z,15.90
2022-10-17T23:13:55.813Z,16.00
2022-10-17T23:16:24.028Z,15.90
2022-10-17T23:18:52.340Z,15.90
2022-10-17T23:21:20.566Z,15.80
2022-10-17T23:23:50.006Z,15.80
2022-10-17T23:26:18.344Z,15.80
2022-10-17T23:28:46.670Z,15.80
2022-10-17T23:31:16.856Z,15.70
2022-10-17T23:33:46.240Z,15.70
2022-10-17T23:36:15.866Z,15.70
2022-10-17T23:38:45.117Z,15.70
2022-10-17T23:41:15.393Z,15.70
2022-10-17T23:43:43.820Z,15.80
2022-10-17T23:46:12.700Z,15.80
2022-10-17T23:48:41.396Z,15.90
2022-10-17T23:51:10.652Z,15.90
2022-10-17T23:53:39.506Z,15.80
2022-10-17T23:56:09.054Z,15.90
2022-10-17T23:58:39.292Z,15.80
